createdAt,value
2022-11-06T00:00:26.433Z,76.50
2022-11-06T00:03:11.959Z,68.03
2022-11-06T00:06:15.974Z,68.60
2022-11-06T00:09:03.935Z,66.38
2022-11-06T00:11:50.924Z,77.15
2022-11-06T00:14:36.497Z,77.35
2022-11-06T00:17:21.989Z,66.63
2022-11-06T00:20:11.075Z,71.72
2022-11-06T00:22:56.375Z,66.70
2022-11-06T00:25:41.901Z,59.70
2022-11-06T00:28:27.443Z,75.97
2022-11-06T00:31:19.054Z,66.97
2022-11-06T00:34:09.082Z,60.60
2022-11-06T00:36:54.747Z,58.42
2022-11-06T00:39:40.132Z,63.47
2022-11-06T00:42:25.585Z,63.85
2022-11-06T00:45:11.190Z,65.68
2022-11-06T00:47:56.502Z,71.00
2022-11-06T00:50:41.859Z,65.15
2022-11-06T00:53:27.405Z,62.45
2022-11-06T00:56:18.491Z,59.42
2022-11-06T00:59:06.663Z,55.80
2022-11-06T01:01:52.013Z,56.90
2022-11-06T01:04:37.256Z,53.28
2022-11-06T01:07:24.188Z,57.22
2022-11-06T01:10:10.306Z,57.55
2022-11-06T01:12:55.983Z,54.92
2022-11-06T01:15:41.554Z,53.30
2022-11-06T01:18:26.662Z,61.72
2022-11-06T01:21:15.501Z,59.72
2022-11-06T01:24:04.592Z,57.72
2022-11-06T01:27:19.783Z,52.92
2022-11-06T01:29:56.841Z,54.67
2022-11-06T01:32:42.215Z,56.50
2022-11-06T01:35:27.639Z,59.83
2022-11-06T01:38:13.907Z,54.00
2022-11-06T01:40:59.584Z,52.03
2022-11-06T01:43:51.034Z,51.75
2022-11-06T01:46:36.690Z,56.90
2022-11-06T01:49:21.989Z,53.65
2022-11-06T01:52:13.052Z,51.78
2022-11-06T01:55:08.829Z,50.63
2022-11-06T01:57:55.442Z,55.00
2022-11-06T02:00:41.715Z,53.53
2022-11-06T02:03:27.182Z,59.78
2022-11-06T02:06:12.915Z,56.80
2022-11-06T02:08:58.410Z,57.10
2022-11-06T02:11:50.433Z,48.50
2022-11-06T02:15:13.959Z,54.38
2022-11-06T02:18:05.313Z,57.90
2022-11-06T02:21:03.656Z,48.42
2022-11-06T02:24:08.000Z,49.80
2022-11-06T02:27:13.474Z,56.10
2022-11-06T02:30:04.227Z,58.40
2022-11-06T02:32:58.466Z,56.00
2022-11-06T02:35:50.866Z,54.25
2022-11-06T02:38:49.089Z,57.97
2022-11-06T02:41:39.686Z,57.53
2022-11-06T02:44:27.706Z,57.83
2022-11-06T02:47:15.054Z,61.22
2022-11-06T02:50:15.715Z,53.33
2022-11-06T02:53:05.044Z,61.97
2022-11-06T02:55:53.283Z,62.17
2022-11-06T02:58:46.146Z,63.28
2022-11-06T03:01:43.108Z,58.33
2022-11-06T03:04:37.662Z,56.85
2022-11-06T03:07:38.524Z,60.67
2022-11-06T03:10:28.378Z,55.17
2022-11-06T03:13:32.656Z,55.85
2022-11-06T03:16:36.510Z,57.10
2022-11-06T03:19:31.152Z,58.20
2022-11-06T03:22:45.191Z,58.92
2022-11-06T03:25:41.059Z,62.83
2022-11-06T03:28:34.530Z,58.05
2022-11-06T03:31:27.924Z,59.30
2022-11-06T03:34:22.534Z,63.97
2022-11-06T03:37:15.950Z,52.78
2022-11-06T03:40:08.608Z,57.20
2022-11-06T03:42:57.938Z,58.33
2022-11-06T03:45:45.465Z,66.13
2022-11-06T03:48:37.938Z,57.70
2022-11-06T03:51:32.334Z,58.72
2022-11-06T03:54:25.333Z,62.70
2022-11-06T03:57:17.223Z,62.55
2022-11-06T04:00:05.310Z,59.47
2022-11-06T04:03:05.885Z,62.97
2022-11-06T04:05:56.534Z,57.78
2022-11-06T04:09:01.728Z,57.97
2022-11-06T04:12:07.940Z,63.85
2022-11-06T04:14:57.575Z,56.67
2022-11-06T04:17:42.988Z,61.42
2022-11-06T04:20:55.898Z,70.15
2022-11-06T04:24:29.303Z,62.38
2022-11-06T04:30:11.947Z,56.63
2022-11-06T04:33:16.231Z,69.22
2022-11-06T04:36:16.466Z,58.90
2022-11-06T04:39:13.238Z,60.72
2022-11-06T04:42:16.510Z,61.13
2022-11-06T04:45:08.466Z,57.90
2022-11-06T04:47:55.202Z,62.83
2022-11-06T04:50:46.904Z,57.67
2022-11-06T04:53:34.360Z,71.32
2022-11-06T04:56:29.506Z,64.88
2022-11-06T04:59:18.462Z,67.68
2022-11-06T05:02:05.495Z,57.35
2022-11-06T05:04:51.198Z,55.70
2022-11-06T05:07:36.435Z,62.97
2022-11-06T05:10:21.879Z,56.53
2022-11-06T05:13:07.595Z,63.05
2022-11-06T05:15:57.775Z,60.33
2022-11-06T05:18:43.409Z,59.50
2022-11-06T05:21:47.463Z,64.20
2022-11-06T05:24:32.934Z,53.78
2022-11-06T05:27:18.288Z,61.17
2022-11-06T05:30:03.957Z,61.53
2022-11-06T05:32:49.547Z,66.93
2022-11-06T05:35:35.024Z,51.42
2022-11-06T05:38:20.729Z,61.40
2022-11-06T05:41:06.338Z,51.58
2022-11-06T05:43:51.923Z,52.08
2022-11-06T05:46:53.335Z,47.33
2022-11-06T05:49:38.747Z,42.22
2022-11-06T05:52:24.578Z,45.83
2022-11-06T05:55:14.769Z,49.53
2022-11-06T05:58:01.868Z,42.58
2022-11-06T06:00:47.499Z,42.42
2022-11-06T06:03:32.827Z,48.45
2022-11-06T06:06:19.892Z,47.45
2022-11-06T06:09:05.601Z,44.20
2022-11-06T06:11:52.662Z,49.42
2022-11-06T06:14:38.294Z,46.50
2022-11-06T06:17:23.645Z,44.53
2022-11-06T06:20:10.347Z,43.30
2022-11-06T06:22:57.249Z,44.13
2022-11-06T06:25:43.160Z,38.88
2022-11-06T06:28:28.552Z,41.15
2022-11-06T06:31:14.254Z,47.45
2022-11-06T06:33:59.634Z,43.90
2022-11-06T06:36:45.234Z,41.03
2022-11-06T06:39:31.137Z,39.65
2022-11-06T06:42:17.172Z,39.63
2022-11-06T06:45:03.264Z,41.58
2022-11-06T06:47:49.883Z,40.15
2022-11-06T06:50:35.755Z,49.00
2022-11-06T06:53:21.863Z,60.47
2022-11-06T06:56:07.266Z,62.13
2022-11-06T06:58:56.186Z,49.80
2022-11-06T07:01:42.824Z,50.75
2022-11-06T07:04:28.790Z,51.65
2022-11-06T07:07:14.214Z,52.40
2022-11-06T07:10:00.053Z,51.65
2022-11-06T07:12:45.654Z,48.15
2022-11-06T07:15:32.327Z,58.03
2022-11-06T07:18:18.089Z,49.53
2022-11-06T07:21:12.137Z,46.25
2022-11-06T07:23:58.135Z,38.92
2022-11-06T07:26:43.936Z,30.35
2022-11-06T07:29:29.437Z,23.42
2022-11-06T07:32:15.014Z,21.05
2022-11-06T07:35:00.603Z,22.13
2022-11-06T07:37:46.191Z,21.98
2022-11-06T07:40:35.850Z,25.05
2022-11-06T07:43:21.498Z,21.90
2022-11-06T07:46:09.278Z,22.90
2022-11-06T07:48:55.145Z,24.23
2022-11-06T07:51:40.453Z,21.88
2022-11-06T07:54:26.550Z,19.55
2022-11-06T07:57:12.512Z,18.23
2022-11-06T07:59:58.266Z,24.92
2022-11-06T08:02:44.630Z,21.00
2022-11-06T08:05:31.164Z,17.77
2022-11-06T08:08:17.204Z,21.90
2022-11-06T08:11:08.727Z,19.48
2022-11-06T08:13:54.584Z,17.20
2022-11-06T08:16:39.931Z,17.88
2022-11-06T08:19:25.882Z,16.90
2022-11-06T08:22:11.811Z,19.80
2022-11-06T08:24:57.381Z,22.65
2022-11-06T08:27:43.028Z,20.65
2022-11-06T08:30:33.311Z,21.63
2022-11-06T08:33:20.974Z,19.42
2022-11-06T08:36:09.962Z,17.55
2022-11-06T08:38:56.255Z,15.57
2022-11-06T08:41:43.211Z,17.80
2022-11-06T08:44:33.363Z,18.10
2022-11-06T08:47:18.956Z,15.50
2022-11-06T08:50:05.612Z,20.85
2022-11-06T08:52:51.021Z,17.42
2022-11-06T08:55:38.540Z,20.13
2022-11-06T08:58:24.807Z,18.92
2022-11-06T09:01:10.617Z,20.67
2022-11-06T09:03:56.014Z,21.85
2022-11-06T09:06:41.373Z,18.70
2022-11-06T09:09:31.992Z,22.60
2022-11-06T09:12:17.970Z,21.60
2022-11-06T09:15:03.759Z,21.77
2022-11-06T09:17:51.934Z,26.58
2022-11-06T09:20:38.041Z,23.92
2022-11-06T09:23:24.197Z,22.67
2022-11-06T09:26:09.848Z,23.90
2022-11-06T09:28:55.631Z,21.17
2022-11-06T09:31:43.100Z,27.20
2022-11-06T09:34:28.470Z,22.45
2022-11-06T09:37:13.996Z,21.60
2022-11-06T09:40:04.760Z,22.33
2022-11-06T09:43:05.332Z,26.05
2022-11-06T09:45:55.004Z,23.05
2022-11-06T09:48:46.036Z,24.08
2022-11-06T09:51:58.687Z,26.33
2022-11-06T09:54:57.532Z,24.83
2022-11-06T09:57:59.737Z,22.58
2022-11-06T10:00:45.337Z,25.45
2022-11-06T10:03:41.974Z,24.77
2022-11-06T10:06:28.778Z,26.25
2022-11-06T10:09:14.618Z,26.00
2022-11-06T10:12:29.339Z,31.45
2022-11-06T10:15:24.914Z,29.05
2022-11-06T10:18:37.179Z,29.67
2022-11-06T10:21:28.130Z,43.33
2022-11-06T10:24:47.009Z,31.95
2022-11-06T10:27:42.462Z,35.58
2022-11-06T10:31:17.345Z,35.20
2022-11-06T10:34:21.366Z,36.67
2022-11-06T10:37:24.551Z,28.65
2022-11-06T10:40:18.833Z,38.17
2022-11-06T10:43:29.194Z,32.97
2022-11-06T10:46:17.862Z,25.80
2022-11-06T10:49:23.353Z,31.50
2022-11-06T10:52:27.676Z,26.05
2022-11-06T10:55:35.099Z,26.45
2022-11-06T10:58:26.680Z,30.17
2022-11-06T11:01:14.852Z,24.17
2022-11-06T11:04:01.237Z,27.55
2022-11-06T11:06:46.727Z,31.02
2022-11-06T11:09:33.764Z,29.00
2022-11-06T11:12:27.017Z,30.17
2022-11-06T11:15:12.600Z,29.52
2022-11-06T11:18:34.404Z,32.47
2022-11-06T11:21:19.942Z,31.92
2022-11-06T11:24:12.020Z,33.15
2022-11-06T11:29:50.484Z,35.08
2022-11-06T11:32:36.057Z,33.17
2022-11-06T11:35:27.932Z,33.88
2022-11-06T11:38:15.752Z,27.40
2022-11-06T11:41:19.621Z,32.25
2022-11-06T11:44:14.257Z,33.75
2022-11-06T11:46:59.724Z,31.83
2022-11-06T11:49:45.699Z,32.42
2022-11-06T11:52:31.139Z,31.50
2022-11-06T11:55:23.961Z,33.38
2022-11-06T11:58:28.821Z,38.03
2022-11-06T12:01:14.498Z,34.30
2022-11-06T12:04:00.524Z,33.10
2022-11-06T12:06:58.783Z,31.08
2022-11-06T12:09:45.145Z,34.42
2022-11-06T12:12:33.419Z,36.75
2022-11-06T12:15:40.523Z,38.63
2022-11-06T12:18:34.586Z,40.92
2022-11-06T12:21:38.841Z,38.70
2022-11-06T12:24:52.729Z,37.08
2022-11-06T12:27:42.632Z,31.55
2022-11-06T12:30:33.143Z,36.75
2022-11-06T12:33:59.572Z,39.20
2022-11-06T12:36:39.356Z,40.93
2022-11-06T12:39:29.938Z,32.92
2022-11-06T12:42:18.866Z,37.75
2022-11-06T12:45:12.158Z,40.60
2022-11-06T12:48:10.746Z,37.05
2022-11-06T12:51:02.280Z,36.38
2022-11-06T12:54:30.730Z,40.60
2022-11-06T12:57:42.149Z,38.53
2022-11-06T13:00:36.003Z,38.87
2022-11-06T13:03:40.410Z,42.47
2022-11-06T13:07:00.652Z,34.50
2022-11-06T13:09:45.922Z,36.08
2022-11-06T13:12:48.019Z,39.70
2022-11-06T13:15:52.281Z,39.40
2022-11-06T13:18:40.387Z,33.97
2022-11-06T13:21:50.873Z,38.03
2022-11-06T13:24:58.922Z,37.33
2022-11-06T13:27:56.108Z,34.67
2022-11-06T13:30:42.964Z,41.05
2022-11-06T13:33:34.239Z,38.33
2022-11-06T13:36:20.893Z,40.67
2022-11-06T13:39:22.301Z,46.53
2022-11-06T13:42:23.597Z,44.22
2022-11-06T13:45:14.878Z,47.15
2022-11-06T13:48:19.011Z,43.58
2022-11-06T13:51:11.491Z,41.28
2022-11-06T13:54:24.047Z,38.08
2022-11-06T14:00:51.747Z,37.50
2022-11-06T14:04:08.976Z,36.95
2022-11-06T14:06:59.204Z,41.97
2022-11-06T14:09:46.886Z,55.90
2022-11-06T14:12:35.046Z,62.67
2022-11-06T14:15:31.320Z,50.72
2022-11-06T14:18:26.049Z,36.55
2022-11-06T14:21:44.817Z,40.50
2022-11-06T14:24:35.243Z,35.58
2022-11-06T14:27:23.701Z,30.85
2022-11-06T14:30:15.350Z,44.03
2022-11-06T14:33:00.880Z,52.55
2022-11-06T14:35:46.586Z,44.42
2022-11-06T14:38:34.106Z,44.22
2022-11-06T14:41:35.066Z,41.58
2022-11-06T14:44:29.590Z,35.45
2022-11-06T14:47:30.050Z,38.55
2022-11-06T14:50:18.447Z,36.05
2022-11-06T14:53:21.173Z,32.70
2022-11-06T14:59:01.039Z,29.42
2022-11-06T15:01:57.791Z,29.92
2022-11-06T15:04:54.668Z,33.72
2022-11-06T15:10:45.776Z,40.05
2022-11-06T15:13:31.194Z,36.47
2022-11-06T15:16:16.959Z,50.25
2022-11-06T15:19:05.588Z,43.00
2022-11-06T15:22:09.071Z,35.70
2022-11-06T15:25:17.920Z,36.92
2022-11-06T15:28:11.988Z,38.33
2022-11-06T15:31:11.941Z,45.35
2022-11-06T15:34:05.976Z,88.38
2022-11-06T15:36:58.509Z,50.60
2022-11-06T15:39:52.621Z,43.10
2022-11-06T15:42:42.012Z,42.55
2022-11-06T15:45:29.641Z,47.50
2022-11-06T15:48:24.750Z,54.92
2022-11-06T15:51:29.390Z,50.85
2022-11-06T15:54:31.010Z,46.75
2022-11-06T15:57:25.586Z,68.28
2022-11-06T16:00:21.029Z,53.85
2022-11-06T16:03:07.562Z,54.80
2022-11-06T16:05:56.581Z,49.33
2022-11-06T16:08:43.432Z,55.85
2022-11-06T16:11:29.947Z,40.92
2022-11-06T16:14:16.945Z,47.65
2022-11-06T16:17:12.370Z,61.75
2022-11-06T16:20:02.687Z,70.53
2022-11-06T16:22:49.710Z,39.90
2022-11-06T16:25:35.246Z,40.00
2022-11-06T16:28:22.558Z,42.33
2022-11-06T16:31:18.111Z,49.55
2022-11-06T16:34:07.524Z,52.28
2022-11-06T16:37:02.916Z,51.92
2022-11-06T16:39:54.070Z,53.30
2022-11-06T16:42:40.423Z,53.58
2022-11-06T16:45:26.889Z,50.00
2022-11-06T16:48:12.596Z,62.25
2022-11-06T16:51:02.363Z,59.72
2022-11-06T16:53:50.690Z,63.45
2022-11-06T16:56:36.503Z,62.17
2022-11-06T16:59:25.149Z,61.35
2022-11-06T17:02:22.017Z,55.33
2022-11-06T17:05:12.474Z,55.58
2022-11-06T17:08:07.321Z,55.22
2022-11-06T17:10:57.536Z,54.63
2022-11-06T17:13:45.896Z,47.83
2022-11-06T17:16:44.710Z,58.15
2022-11-06T17:19:30.679Z,57.30
2022-11-06T17:22:17.308Z,57.83
2022-11-06T17:25:03.536Z,50.33
2022-11-06T17:27:48.952Z,50.92
2022-11-06T17:30:35.294Z,56.20
2022-11-06T17:33:21.481Z,58.80
2022-11-06T17:36:14.331Z,57.47
2022-11-06T17:39:01.410Z,51.47
2022-11-06T17:41:47.887Z,59.85
2022-11-06T17:44:33.943Z,78.38
2022-11-06T17:47:19.660Z,78.40
2022-11-06T17:50:06.801Z,62.78
2022-11-06T17:52:52.414Z,50.78
2022-11-06T17:55:38.155Z,50.40
2022-11-06T17:58:23.698Z,60.55
2022-11-06T18:01:11.582Z,58.53
2022-11-06T18:04:00.419Z,58.58
2022-11-06T18:06:48.885Z,54.97
2022-11-06T18:09:36.263Z,54.78
2022-11-06T18:12:28.655Z,53.65
2022-11-06T18:15:17.041Z,54.08
2022-11-06T18:18:06.811Z,57.60
2022-11-06T18:20:53.813Z,56.08
2022-11-06T18:23:41.432Z,59.08
2022-11-06T18:26:27.501Z,58.92
2022-11-06T18:29:13.590Z,57.50
2022-11-06T18:32:02.119Z,58.15
2022-11-06T18:34:48.701Z,56.97
2022-11-06T18:37:36.799Z,60.60
2022-11-06T18:40:22.434Z,58.85
2022-11-06T18:43:08.415Z,55.65
2022-11-06T18:46:04.588Z,70.43
2022-11-06T18:49:00.787Z,83.13
2022-11-06T18:51:46.486Z,91.68
2022-11-06T18:54:31.851Z,81.28
2022-11-06T18:57:17.348Z,70.80
2022-11-06T19:00:03.430Z,69.55
2022-11-06T19:02:49.271Z,64.85
2022-11-06T19:05:34.910Z,61.53
2022-11-06T19:08:20.932Z,63.70
2022-11-06T19:11:08.587Z,69.18
2022-11-06T19:13:54.288Z,67.72
2022-11-06T19:16:40.062Z,72.45
2022-11-06T19:19:26.217Z,73.25
2022-11-06T19:22:11.803Z,76.68
2022-11-06T19:24:57.404Z,62.58
2022-11-06T19:27:43.268Z,77.22
2022-11-06T19:30:28.656Z,73.85
2022-11-06T19:33:15.000Z,79.18
2022-11-06T19:36:02.402Z,73.15
2022-11-06T19:38:48.804Z,72.72
2022-11-06T19:41:36.488Z,66.85
2022-11-06T19:44:22.540Z,69.72
2022-11-06T19:47:08.611Z,65.47
2022-11-06T19:49:54.937Z,70.18
2022-11-06T19:52:45.539Z,82.65
2022-11-06T19:55:33.393Z,75.20
2022-11-06T19:58:20.674Z,77.30
2022-11-06T20:01:08.241Z,65.22
2022-11-06T20:03:54.206Z,84.55
2022-11-06T20:06:41.282Z,68.50
2022-11-06T20:09:28.939Z,86.63
2022-11-06T20:12:16.083Z,83.57
2022-11-06T20:15:01.136Z,62.28
2022-11-06T20:17:47.994Z,63.80
2022-11-06T20:20:36.423Z,76.10
2022-11-06T20:23:22.858Z,95.45
2022-11-06T20:26:08.382Z,73.20
2022-11-06T20:28:54.140Z,84.78
2022-11-06T20:31:39.978Z,70.10
2022-11-06T20:34:25.386Z,75.30
2022-11-06T20:37:10.808Z,73.97
2022-11-06T20:39:56.599Z,72.18
2022-11-06T20:42:42.360Z,76.57
2022-11-06T20:45:28.122Z,88.47
2022-11-06T20:48:13.425Z,77.53
2022-11-06T20:51:01.580Z,64.72
2022-11-06T20:53:47.638Z,94.70
2022-11-06T20:56:35.389Z,149.52
2022-11-06T20:59:21.105Z,138.25
2022-11-06T21:02:07.437Z,113.82
2022-11-06T21:04:52.993Z,122.35
2022-11-06T21:07:40.928Z,109.22
2022-11-06T21:10:26.376Z,85.18
2022-11-06T21:13:12.536Z,79.28
2022-11-06T21:16:06.368Z,58.78
2022-11-06T21:18:52.500Z,55.67
2022-11-06T21:21:38.986Z,47.17
2022-11-06T21:24:24.961Z,43.58
2022-11-06T21:27:11.591Z,45.30
2022-11-06T21:30:00.535Z,58.22
2022-11-06T21:32:45.950Z,56.45
2022-11-06T21:35:31.343Z,58.97
2022-11-06T21:38:17.049Z,48.22
2022-11-06T21:41:15.215Z,49.17
2022-11-06T21:44:06.571Z,53.75
2022-11-06T21:46:53.270Z,45.50
2022-11-06T21:49:38.622Z,44.80
2022-11-06T21:52:42.748Z,42.53
2022-11-06T21:55:52.778Z,40.22
2022-11-06T21:58:39.770Z,41.42
2022-11-06T22:01:27.093Z,37.63
2022-11-06T22:04:13.760Z,43.47
2022-11-06T22:06:59.374Z,45.63
2022-11-06T22:09:45.142Z,40.15
2022-11-06T22:12:30.530Z,37.95
2022-11-06T22:15:16.286Z,41.78
2022-11-06T22:18:02.110Z,43.55
2022-11-06T22:20:47.822Z,41.40
2022-11-06T22:23:34.508Z,40.17
2022-11-06T22:26:22.666Z,41.90
2022-11-06T22:29:12.071Z,39.72
2022-11-06T22:31:57.467Z,39.58
2022-11-06T22:34:44.415Z,39.95
2022-11-06T22:37:30.153Z,36.83
2022-11-06T22:40:15.607Z,43.13
2022-11-06T22:43:01.111Z,41.85
2022-11-06T22:45:47.087Z,40.88
2022-11-06T22:48:33.154Z,37.47
2022-11-06T22:51:21.904Z,36.80
2022-11-06T22:54:07.535Z,38.53
2022-11-06T22:56:53.257Z,31.90
2022-11-06T22:59:39.059Z,32.22
2022-11-06T23:02:25.480Z,36.42
2022-11-06T23:05:11.073Z,34.25
2022-11-06T23:07:56.446Z,38.58
2022-11-06T23:10:42.432Z,30.55
2022-11-06T23:13:28.009Z,28.48
2022-11-06T23:16:40.243Z,30.73
2022-11-06T23:19:26.087Z,22.20
2022-11-06T23:22:30.151Z,28.85
2022-11-06T23:25:17.480Z,28.45
2022-11-06T23:28:03.041Z,30.35
2022-11-06T23:30:49.665Z,23.35
2022-11-06T23:33:35.417Z,29.33
2022-11-06T23:36:21.282Z,27.60
2022-11-06T23:39:06.711Z,24.63
2022-11-06T23:41:52.262Z,22.90
2022-11-06T23:44:56.211Z,25.65
2022-11-06T23:47:41.760Z,22.08
2022-11-06T23:50:27.195Z,26.90
2022-11-06T23:53:17.210Z,21.10
2022-11-06T23:56:07.466Z,23.05
2022-11-06T23:58:52.888Z,27.75
